Time,TemperatureF,DewpointF,PressureIn,WindDirection,WindDirectionDegrees,WindSpeedMPH,WindSpeedGustMPH,Humidity,HourlyPrecipIn,Conditions,Clouds,dailyrainin,SoftwareType,DateUTC
2013-04-21 00:07:00,42.7,32.0,30.36,ESE,102,5.0,6.0,66,0.00,,,0.00,weatherlink.com 1.10,2013-04-21 05:07:00,
2013-04-21 00:22:00,42.3,32.0,30.35,East,97,5.0,8.0,67,0.00,,,0.00,weatherlink.com 1.10,2013-04-21 05:22:00,
2013-04-21 00:37:00,42.5,32.0,30.36,ENE,68,6.0,11.0,66,0.00,,,0.00,weatherlink.com 1.10,2013-04-21 05:37:00,
2013-04-21 00:52:00,42.5,32.0,30.36,ESE,110,5.0,8.0,66,0.00,,,0.00,weatherlink.com 1.10,2013-04-21 05:52:00,
2013-04-21 01:07:00,42.4,32.0,30.36,ESE,103,10.0,10.0,66,0.00,,,0.00,weatherlink.com 1.10,2013-04-21 06:07:00,
2013-04-21 01:22:00,42.5,31.0,30.36,East,95,4.0,11.0,65,0.00,,,0.00,weatherlink.com 1.10,2013-04-21 06:22:00,
2013-04-21 01:37:00,42.4,31.0,30.36,East,86,6.0,10.0,65,0.00,,,0.00,weatherlink.com 1.10,2013-04-21 06:37:00,
2013-04-21 01:52:00,42.1,31.0,30.36,ESE,105,5.0,9.0,66,0.00,,,0.00,weatherlink.com 1.10,2013-04-21 06:52:00,
2013-04-21 02:07:00,41.7,31.0,30.36,ESE,120,7.0,7.0,67,0.00,,,0.00,weatherlink.com 1.10,2013-04-21 07:07:00,
2013-04-21 02:22:00,41.5,32.0,30.36,East,79,5.0,6.0,68,0.00,,,0.00,weatherlink.com 1.10,2013-04-21 07:22:00,
2013-04-21 02:37:00,41.8,32.0,30.36,SE,131,6.0,10.0,67,0.00,,,0.00,weatherlink.com 1.10,2013-04-21 07:37:00,
2013-04-21 02:52:00,41.8,32.0,30.36,East,99,9.0,14.0,67,0.00,,,0.00,weatherlink.com 1.10,2013-04-21 07:52:00,
2013-04-21 03:07:00,41.8,32.0,30.37,ESE,102,7.0,12.0,67,0.00,,,0.00,weatherlink.com 1.10,2013-04-21 08:07:00,
2013-04-21 03:22:00,41.7,31.0,30.37,ESE,103,8.0,12.0,67,0.00,,,0.00,weatherlink.com 1.10,2013-04-21 08:22:00,
2013-04-21 03:37:00,41.4,32.0,30.37,ESE,108,8.0,11.0,70,0.00,,,0.00,weatherlink.com 1.10,2013-04-21 08:37:00,
2013-04-21 03:52:00,41.3,32.0,30.37,East,85,7.0,13.0,70,0.00,,,0.00,weatherlink.com 1.10,2013-04-21 08:52:00,
2013-04-21 04:07:00,41.3,32.0,30.37,ESE,103,6.0,12.0,69,0.00,,,0.00,weatherlink.com 1.10,2013-04-21 09:07:00,
2013-04-21 04:22:00,41.3,32.0,30.37,East,96,6.0,13.0,69,0.00,,,0.00,weatherlink.com 1.10,2013-04-21 09:22:00,
2013-04-21 04:37:00,41.3,31.0,30.36,East,94,10.0,12.0,68,0.00,,,0.00,weatherlink.com 1.10,2013-04-21 09:37:00,
2013-04-21 04:52:00,41.3,31.0,30.37,ESE,105,9.0,15.0,68,0.00,,,0.00,weatherlink.com 1.10,2013-04-21 09:52:00,
2013-04-21 05:07:00,41.2,31.0,30.38,ESE,117,3.0,11.0,68,0.00,,,0.00,weatherlink.com 1.10,2013-04-21 10:07:00,
2013-04-21 05:22:00,41.3,31.0,30.38,ESE,109,4.0,12.0,67,0.00,,,0.00,weatherlink.com 1.10,2013-04-21 10:22:00,
2013-04-21 05:37:00,41.2,31.0,30.39,ESE,113,12.0,16.0,66,0.00,,,0.00,weatherlink.com 1.10,2013-04-21 10:37:00,
2013-04-21 05:52:00,41.2,31.0,30.39,East,92,7.0,14.0,66,0.00,,,0.00,weatherlink.com 1.10,2013-04-21 10:52:00,
2013-04-21 06:07:00,41.1,30.0,30.39,East,99,9.0,20.0,66,0.00,,,0.00,weatherlink.com 1.10,2013-04-21 11:07:00,
2013-04-21 06:22:00,41.0,30.0,30.40,ESE,113,10.0,15.0,66,0.00,,,0.00,weatherlink.com 1.10,2013-04-21 11:22:00,
2013-04-21 06:37:00,41.0,31.0,30.40,ESE,113,7.0,15.0,67,0.00,,,0.00,weatherlink.com 1.10,2013-04-21 11:37:00,
2013-04-21 06:52:00,41.1,30.0,30.41,ESE,121,5.0,18.0,66,0.00,,,0.00,weatherlink.com 1.10,2013-04-21 11:52:00,
2013-04-21 07:07:00,41.1,30.0,30.41,ESE,117,8.0,13.0,66,0.00,,,0.00,weatherlink.com 1.10,2013-04-21 12:07:00,
2013-04-21 07:22:00,41.3,30.0,30.42,ESE,104,8.0,16.0,65,0.00,,,0.00,weatherlink.com 1.10,2013-04-21 12:22:00,
2013-04-21 07:37:00,41.5,30.0,30.42,ESE,107,10.0,17.0,64,0.00,,,0.00,weatherlink.com 1.10,2013-04-21 12:37:00,
2013-04-21 07:52:00,41.9,30.0,30.42,East,93,8.0,15.0,64,0.00,,,0.00,weatherlink.com 1.10,2013-04-21 12:52:00,
2013-04-21 08:07:00,42.2,30.0,30.42,ESE,108,12.0,17.0,63,0.00,,,0.00,weatherlink.com 1.10,2013-04-21 13:07:00,
2013-04-21 08:22:00,43.3,31.0,30.42,ESE,103,3.0,15.0,63,0.00,,,0.00,weatherlink.com 1.10,2013-04-21 13:22:00,
2013-04-21 08:37:00,43.3,31.0,30.42,SE,131,4.0,15.0,62,0.00,,,0.00,weatherlink.com 1.10,2013-04-21 13:37:00,
2013-04-21 08:52:00,43.8,31.0,30.43,ESE,122,6.0,16.0,62,0.00,,,0.00,weatherlink.com 1.10,2013-04-21 13:52:00,
2013-04-21 09:07:00,45.1,32.0,30.42,ESE,123,9.0,15.0,61,0.00,,,0.00,weatherlink.com 1.10,2013-04-21 14:07:00,
2013-04-21 09:22:00,45.3,32.0,30.42,SE,125,6.0,15.0,59,0.00,,,0.00,weatherlink.com 1.10,2013-04-21 14:22:00,
2013-04-21 09:37:00,46.4,33.0,30.42,SSE,155,5.0,11.0,60,0.00,,,0.00,weatherlink.com 1.10,2013-04-21 14:37:00,
2013-04-21 09:52:00,46.5,33.0,30.42,East,82,10.0,15.0,59,0.00,,,0.00,weatherlink.com 1.10,2013-04-21 14:52:00,
2013-04-21 10:07:00,47.7,35.0,30.42,ESE,109,10.0,17.0,61,0.00,,,0.00,weatherlink.com 1.10,2013-04-21 15:07:00,
2013-04-21 10:22:00,48.2,35.0,30.42,ESE,117,8.0,16.0,60,0.00,,,0.00,weatherlink.com 1.10,2013-04-21 15:22:00,
2013-04-21 10:37:00,49.0,36.0,30.41,ESE,119,7.0,16.0,62,0.00,,,0.00,weatherlink.com 1.10,2013-04-21 15:37:00,
2013-04-21 10:52:00,49.9,37.0,30.41,ESE,122,4.0,11.0,61,0.00,,,0.00,weatherlink.com 1.10,2013-04-21 15:52:00,
2013-04-21 11:07:00,49.9,36.0,30.41,SE,128,12.0,15.0,59,0.00,,,0.00,weatherlink.com 1.10,2013-04-21 16:07:00,
2013-04-21 11:22:00,50.3,37.0,30.40,SE,141,6.0,13.0,61,0.00,,,0.00,weatherlink.com 1.10,2013-04-21 16:22:00,
2013-04-21 11:38:00,51.1,37.0,30.39,East,79,10.0,16.0,58,0.00,,,0.00,weatherlink.com 1.10,2013-04-21 16:38:00,
2013-04-21 11:53:00,51.7,38.0,30.39,SE,132,4.0,14.0,59,0.00,,,0.00,weatherlink.com 1.10,2013-04-21 16:53:00,
2013-04-21 12:08:00,52.1,38.0,30.38,ESE,103,8.0,17.0,59,0.00,,,0.00,weatherlink.com 1.10,2013-04-21 17:08:00,
2013-04-21 12:23:00,52.6,38.0,30.37,ENE,64,5.0,20.0,58,0.00,,,0.00,weatherlink.com 1.10,2013-04-21 17:23:00,
2013-04-21 12:38:00,53.6,39.0,30.36,East,100,11.0,17.0,58,0.00,,,0.00,weatherlink.com 1.10,2013-04-21 17:38:00,
2013-04-21 12:53:00,54.3,39.0,30.36,ESE,115,11.0,16.0,56,0.00,,,0.00,weatherlink.com 1.10,2013-04-21 17:53:00,
2013-04-21 13:08:00,55.1,39.0,30.35,SE,140,8.0,14.0,56,0.00,,,0.00,weatherlink.com 1.10,2013-04-21 18:08:00,
2013-04-21 13:23:00,55.5,40.0,30.35,SSE,167,6.0,15.0,56,0.00,,,0.00,weatherlink.com 1.10,2013-04-21 18:23:00,
2013-04-21 13:38:00,56.0,40.0,30.34,ENE,72,13.0,15.0,55,0.00,,,0.00,weatherlink.com 1.10,2013-04-21 18:38:00,
2013-04-21 13:53:00,58.0,42.0,30.33,SSE,162,7.0,15.0,56,0.00,,,0.00,weatherlink.com 1.10,2013-04-21 18:53:00,
2013-04-21 14:08:00,58.1,41.0,30.33,East,94,14.0,16.0,54,0.00,,,0.00,weatherlink.com 1.10,2013-04-21 19:08:00,
2013-04-21 14:23:00,58.7,40.0,30.32,SSE,165,3.0,9.0,51,0.00,,,0.00,weatherlink.com 1.10,2013-04-21 19:23:00,
2013-04-21 14:38:00,58.5,42.0,30.31,East,94,5.0,15.0,54,0.00,,,0.00,weatherlink.com 1.10,2013-04-21 19:38:00,
2013-04-21 14:53:00,57.3,40.0,30.30,SE,124,9.0,16.0,53,0.00,,,0.00,weatherlink.com 1.10,2013-04-21 19:53:00,
2013-04-21 15:08:00,59.0,43.0,30.30,East,97,8.0,13.0,55,0.00,,,0.00,weatherlink.com 1.10,2013-04-21 20:08:00,
2013-04-21 15:23:00,59.2,41.0,30.29,ENE,61,8.0,12.0,51,0.00,,,0.00,weatherlink.com 1.10,2013-04-21 20:23:00,
2013-04-21 15:38:00,59.0,43.0,30.29,ENE,77,9.0,13.0,55,0.00,,,0.00,weatherlink.com 1.10,2013-04-21 20:38:00,
2013-04-21 15:53:00,59.1,42.0,30.28,East,89,13.0,15.0,54,0.00,,,0.00,weatherlink.com 1.10,2013-04-21 20:53:00,
2013-04-21 16:08:00,58.6,42.0,30.27,SE,135,3.0,14.0,55,0.00,,,0.00,weatherlink.com 1.10,2013-04-21 21:08:00,
2013-04-21 16:23:00,59.6,43.0,30.27,East,101,8.0,15.0,54,0.00,,,0.00,weatherlink.com 1.10,2013-04-21 21:23:00,
2013-04-21 16:38:00,59.6,43.0,30.27,East,89,8.0,11.0,54,0.00,,,0.00,weatherlink.com 1.10,2013-04-21 21:38:00,
2013-04-21 16:53:00,59.0,43.0,30.26,East,91,11.0,12.0,55,0.00,,,0.00,weatherlink.com 1.10,2013-04-21 21:53:00,
2013-04-21 17:08:00,58.4,42.0,30.26,ESE,111,5.0,12.0,55,0.00,,,0.00,weatherlink.com 1.10,2013-04-21 22:08:00,
2013-04-21 17:23:00,58.5,43.0,30.25,East,92,4.0,15.0,56,0.00,,,0.00,weatherlink.com 1.10,2013-04-21 22:23:00,
2013-04-21 17:38:00,59.1,43.0,30.25,ESE,117,8.0,12.0,55,0.00,,,0.00,weatherlink.com 1.10,2013-04-21 22:38:00,
2013-04-21 17:53:00,58.8,43.0,30.25,East,93,9.0,12.0,56,0.00,,,0.00,weatherlink.com 1.10,2013-04-21 22:53:00,
2013-04-21 18:08:00,58.4,43.0,30.25,ESE,120,5.0,14.0,56,0.00,,,0.00,weatherlink.com 1.10,2013-04-21 23:08:00,
2013-04-21 18:23:00,57.8,42.0,30.25,ESE,110,5.0,17.0,57,0.00,,,0.00,weatherlink.com 1.10,2013-04-21 23:23:00,
2013-04-21 18:39:00,57.8,42.0,30.25,ESE,121,4.0,11.0,57,0.00,,,0.00,weatherlink.com 1.10,2013-04-21 23:39:00,
2013-04-21 18:53:00,57.4,42.0,30.25,ESE,120,12.0,13.0,57,0.00,,,0.00,weatherlink.com 1.10,2013-04-21 23:53:00,
2013-04-21 19:08:00,57.0,42.0,30.25,ESE,119,5.0,13.0,58,0.00,,,0.00,weatherlink.com 1.10,2013-04-22 00:08:00,
2013-04-21 19:23:00,56.5,42.0,30.25,ESE,118,8.0,15.0,58,0.00,,,0.00,weatherlink.com 1.10,2013-04-22 00:23:00,
2013-04-21 19:38:00,56.0,41.0,30.25,ESE,108,4.0,12.0,58,0.00,,,0.00,weatherlink.com 1.10,2013-04-22 00:38:00,
2013-04-21 19:53:00,55.5,41.0,30.25,SE,128,3.0,9.0,59,0.00,,,0.00,weatherlink.com 1.10,2013-04-22 00:53:00,
2013-04-21 20:08:00,54.9,41.0,30.26,ESE,112,2.0,7.0,60,0.00,,,0.00,weatherlink.com 1.10,2013-04-22 01:08:00,
2013-04-21 20:23:00,54.4,42.0,30.27,SE,131,2.0,9.0,63,0.00,,,0.00,weatherlink.com 1.10,2013-04-22 01:23:00,
2013-04-21 20:38:00,53.7,42.0,30.27,SE,143,2.0,5.0,64,0.00,,,0.00,weatherlink.com 1.10,2013-04-22 01:38:00,
2013-04-21 20:54:00,53.6,42.0,30.27,SE,127,4.0,5.0,64,0.00,,,0.00,weatherlink.com 1.10,2013-04-22 01:54:00,
2013-04-21 21:09:00,53.7,41.0,30.28,ESE,123,3.0,8.0,63,0.00,,,0.00,weatherlink.com 1.10,2013-04-22 02:09:00,
2013-04-21 21:24:00,53.6,42.0,30.28,SE,124,2.0,4.0,64,0.00,,,0.00,weatherlink.com 1.10,2013-04-22 02:24:00,
2013-04-21 21:39:00,53.4,42.0,30.28,ESE,104,7.0,9.0,65,0.00,,,0.00,weatherlink.com 1.10,2013-04-22 02:39:00,
2013-04-21 21:54:00,53.3,42.0,30.29,SE,134,2.0,7.0,65,0.00,,,0.00,weatherlink.com 1.10,2013-04-22 02:54:00,
2013-04-21 22:24:00,52.9,42.0,30.29,ESE,118,3.0,8.0,66,0.00,,,0.00,weatherlink.com 1.10,2013-04-22 03:24:00,
2013-04-21 22:39:00,52.8,41.0,30.28,ESE,120,3.0,11.0,64,0.00,,,0.00,weatherlink.com 1.10,2013-04-22 03:39:00,
2013-04-21 22:55:00,52.3,41.0,30.28,East,82,8.0,10.0,65,0.00,,,0.00,weatherlink.com 1.10,2013-04-22 03:55:00,
2013-04-21 23:09:00,52.1,40.0,30.28,East,94,11.0,11.0,64,0.00,,,0.00,weatherlink.com 1.10,2013-04-22 04:09:00,
2013-04-21 23:24:00,51.7,40.0,30.28,East,85,8.0,8.0,64,0.00,,,0.00,weatherlink.com 1.10,2013-04-22 04:24:00,
2013-04-21 23:39:00,51.5,40.0,30.27,East,86,7.0,10.0,64,0.00,,,0.00,weatherlink.com 1.10,2013-04-22 04:39:00,
2013-04-21 23:54:00,51.2,40.0,30.26,ESE,117,6.0,9.0,65,0.00,,,0.00,weatherlink.com 1.10,2013-04-22 04:54:00,